White, PA (15490)

3:51 PM EST on December 05, 2016 (GMT -0500)
Donegal | | Change Station
Active Advisory: Winter Weather Advisory

Elev 1762 ft 40.09 °N, 79.39 °W | Updated 22 seconds ago

Scattered Clouds
Scattered Clouds
39.4 °F
Feels Like 39 °F
N
0.0
Wind Variable Wind from South
Gusts 0.0 mph

Today
High -- | Low -- °F
--% Chance of Precip.
Yesterday
High -- | Low -- °F
Precip. -- in
Pressure 30.08 in
Visibility 10.0 miles
Clouds Scattered Clouds 3400 ft
Windchill 39 °F
Dew Point 29 °F
Humidity 65%
Rainfall 0.14 in
Snow Depth Not available.
7:24 AM 4:52 PM
Waxing Crescent, 34% visible
METAR KLBE 052045Z 28004KT 10SM SCT034 04/M02 A3008
Pressure 30.08 in
Visibility 10.0 miles
Clouds Scattered Clouds 3400 ft
Windchill 39 °F
Dew Point 29 °F
Humidity 65%
Rainfall 0.14 in
Snow Depth Not available.
7:24 AM 4:52 PM
Waxing Crescent, 34% visible
METAR KLBE 052045Z 28004KT 10SM SCT034 04/M02 A3008

10-Day Weather Forecast

Almanac

Astronomy

Dec. 05, 2016 Rise Set
Actual Time
Civil Twilight
Nautical Twilight
Astronomical Twilight
Moon
Length of Visible Light
Length of Day
Tomorrow will be .
, % of the Moon is Illuminated

Today's Extremes

State Highs State Lows

Community

WunderPhotos

Upload Photos

1,955,852 photos uploaded!

WunderBlog® & News

Nearby

Air Quality

  Air Quality AQ Index Pollutant
Not available.

Snow Depth

Station Depth Elevation

Earthquake Activity

City Distance Mag. Time & Date
Minimum magnitude displayed is 2.5.

Coastal Water Temperatures

Place Temperature

Stations

Nearby Weather Stations

Station Location Temp. Windchill Dew Point Humidity Wind Precip. Elev Updated Type
                   

Watches & Warnings

Winter Weather Advisory
Issued: 1:33 PM EST Dec. 5, 2016 – National Weather Service

... Winter Weather Advisory in effect from 4 am to 10 PM EST
Tuesday...

The National Weather Service in Pittsburgh has issued a Winter
Weather Advisory for freezing rain... which is in effect from 4 am
to 10 PM EST Tuesday.

* Hazard types... freezing rain.

* Ice accumulations... one to two tenths of an inch.

* Timing... early Tuesday morning through Tuesday evening.

* Impacts... ice accumulations may create slippery Road conditions
and produce scattered power outages.

* Winds... southeast 10 to 20 mph with gusts up to 40 mph.

Precautionary/preparedness actions...

A Winter Weather Advisory means that freezing rain will cause
travel difficulties. Be prepared for slippery roads and limited
visibilities... and use caution while driving.



07